sensor_id;sensor_type;location;lat;lon;timestamp;pressure;altitude;pressure_sealevel;temperature;humidity
43707;BME280;61348;53.392;-6.248;2023-12-22T00:02:21;100582.97;;;9.82;100.00
43707;BME280;61348;53.392;-6.248;2023-12-22T00:04:50;100569.63;;;9.84;100.00
43707;BME280;61348;53.392;-6.248;2023-12-22T00:07:18;100586.31;;;9.88;100.00
43707;BME280;61348;53.392;-6.248;2023-12-22T00:09:47;100586.78;;;9.90;100.00
43707;BME280;61348;53.392;-6.248;2023-12-22T00:12:15;100565.44;;;9.90;100.00
43707;BME280;61348;53.392;-6.248;2023-12-22T00:14:42;100571.47;;;9.92;100.00
43707;BME280;61348;53.392;-6.248;2023-12-22T00:17:09;100584.94;;;9.94;100.00
43707;BME280;61348;53.392;-6.248;2023-12-22T00:19:37;100570.06;;;9.98;100.00
43707;BME280;61348;53.392;-6.248;2023-12-22T00:22:04;100588.75;;;10.01;100.00
43707;BME280;61348;53.392;-6.248;2023-12-22T00:24:31;100575.41;;;10.03;100.00
43707;BME280;61348;53.392;-6.248;2023-12-22T00:26:59;100571.00;;;10.02;100.00
43707;BME280;61348;53.392;-6.248;2023-12-22T00:29:26;100574.09;;;10.01;100.00
43707;BME280;61348;53.392;-6.248;2023-12-22T00:31:55;100565.69;;;9.97;100.00
43707;BME280;61348;53.392;-6.248;2023-12-22T00:34:23;100565.94;;;9.92;100.00
43707;BME280;61348;53.392;-6.248;2023-12-22T00:36:50;100587.94;;;9.89;100.00
43707;BME280;61348;53.392;-6.248;2023-12-22T00:39:17;100584.25;;;9.85;100.00
43707;BME280;61348;53.392;-6.248;2023-12-22T00:41:45;100573.06;;;9.81;100.00
43707;BME280;61348;53.392;-6.248;2023-12-22T00:44:12;100570.97;;;9.78;100.00
43707;BME280;61348;53.392;-6.248;2023-12-22T00:46:39;100574.09;;;9.76;100.00
43707;BME280;61348;53.392;-6.248;2023-12-22T00:49:07;100581.13;;;9.74;100.00
43707;BME280;61348;53.392;-6.248;2023-12-22T00:51:34;100573.97;;;9.73;100.00
43707;BME280;61348;53.392;-6.248;2023-12-22T00:54:02;100594.47;;;9.72;100.00
43707;BME280;61348;53.392;-6.248;2023-12-22T00:56:29;100570.75;;;9.71;100.00
43707;BME280;61348;53.392;-6.248;2023-12-22T00:58:56;100573.53;;;9.71;100.00
43707;BME280;61348;53.392;-6.248;2023-12-22T01:01:35;100575.47;;;9.70;100.00
43707;BME280;61348;53.392;-6.248;2023-12-22T01:04:02;100572.69;;;9.70;100.00
43707;BME280;61348;53.392;-6.248;2023-12-22T01:06:30;100575.78;;;9.69;100.00
43707;BME280;61348;53.392;-6.248;2023-12-22T01:08:58;100584.91;;;9.69;100.00
43707;BME280;61348;53.392;-6.248;2023-12-22T01:11:26;100572.25;;;9.68;100.00
43707;BME280;61348;53.392;-6.248;2023-12-22T01:13:55;100573.03;;;9.69;100.00
43707;BME280;61348;53.392;-6.248;2023-12-22T01:16:22;100571.91;;;9.70;100.00
43707;BME280;61348;53.392;-6.248;2023-12-22T01:18:51;100575.13;;;9.72;100.00
43707;BME280;61348;53.392;-6.248;2023-12-22T01:21:18;100572.34;;;9.72;100.00
43707;BME280;61348;53.392;-6.248;2023-12-22T01:23:45;100573.16;;;9.72;100.00
43707;BME280;61348;53.392;-6.248;2023-12-22T01:26:13;100561.78;;;9.74;100.00
43707;BME280;61348;53.392;-6.248;2023-12-22T01:28:40;100571.66;;;9.75;100.00
43707;BME280;61348;53.392;-6.248;2023-12-22T01:31:07;100563.81;;;9.77;100.00
43707;BME280;61348;53.392;-6.248;2023-12-22T01:33:35;100567.88;;;9.79;100.00
43707;BME280;61348;53.392;-6.248;2023-12-22T01:36:02;100571.94;;;9.82;100.00
43707;BME280;61348;53.392;-6.248;2023-12-22T01:38:29;100552.22;;;9.84;100.00
43707;BME280;61348;53.392;-6.248;2023-12-22T01:40:57;100560.63;;;9.87;100.00
43707;BME280;61348;53.392;-6.248;2023-12-22T01:43:24;100553.13;;;9.88;100.00
43707;BME280;61348;53.392;-6.248;2023-12-22T01:45:55;100566.94;;;9.88;100.00
43707;BME280;61348;53.392;-6.248;2023-12-22T01:48:24;100550.72;;;9.86;100.00
43707;BME280;61348;53.392;-6.248;2023-12-22T01:50:53;100561.78;;;9.86;100.00
43707;BME280;61348;53.392;-6.248;2023-12-22T01:53:21;100566.50;;;9.86;100.00
43707;BME280;61348;53.392;-6.248;2023-12-22T01:55:50;100563.28;;;9.84;100.00
43707;BME280;61348;53.392;-6.248;2023-12-22T01:58:19;100553.25;;;9.79;100.00
43707;BME280;61348;53.392;-6.248;2023-12-22T02:00:47;100562.22;;;9.76;100.00
43707;BME280;61348;53.392;-6.248;2023-12-22T02:03:15;100576.75;;;9.73;100.00
43707;BME280;61348;53.392;-6.248;2023-12-22T02:05:46;100550.91;;;9.69;100.00
43707;BME280;61348;53.392;-6.248;2023-12-22T02:08:17;100550.13;;;9.68;100.00
43707;BME280;61348;53.392;-6.248;2023-12-22T02:10:45;100561.50;;;9.67;100.00
43707;BME280;61348;53.392;-6.248;2023-12-22T02:13:12;100556.00;;;9.67;100.00
43707;BME280;61348;53.392;-6.248;2023-12-22T02:15:40;100553.22;;;9.67;100.00
43707;BME280;61348;53.392;-6.248;2023-12-22T02:18:25;100553.22;;;9.67;100.00
43707;BME280;61348;53.392;-6.248;2023-12-22T02:20:53;100563.47;;;9.66;100.00
43707;BME280;61348;53.392;-6.248;2023-12-22T02:23:21;100550.00;;;9.65;100.00
43707;BME280;61348;53.392;-6.248;2023-12-22T02:25:50;100550.00;;;9.65;100.00
43707;BME280;61348;53.392;-6.248;2023-12-22T02:28:23;100563.81;;;9.65;100.00
43707;BME280;61348;53.392;-6.248;2023-12-22T02:31:04;100554.41;;;9.66;100.00
43707;BME280;61348;53.392;-6.248;2023-12-22T02:33:38;100559.94;;;9.66;100.00
43707;BME280;61348;53.392;-6.248;2023-12-22T02:36:09;100566.22;;;9.66;100.00
43707;BME280;61348;53.392;-6.248;2023-12-22T02:38:38;100564.97;;;9.64;100.00
43707;BME280;61348;53.392;-6.248;2023-12-22T02:41:06;100574.75;;;9.61;100.00
43707;BME280;61348;53.392;-6.248;2023-12-22T02:43:35;100561.97;;;9.57;100.00
43707;BME280;61348;53.392;-6.248;2023-12-22T02:46:03;100568.19;;;9.54;100.00
43707;BME280;61348;53.392;-6.248;2023-12-22T02:48:30;100571.63;;;9.51;100.00
43707;BME280;61348;53.392;-6.248;2023-12-22T02:50:57;100578.63;;;9.48;100.00
43707;BME280;61348;53.392;-6.248;2023-12-22T02:53:25;100569.88;;;9.46;100.00
43707;BME280;61348;53.392;-6.248;2023-12-22T02:55:52;100581.31;;;9.45;100.00
43707;BME280;61348;53.392;-6.248;2023-12-22T02:58:20;100576.91;;;9.44;100.00
43707;BME280;61348;53.392;-6.248;2023-12-22T03:00:47;100570.56;;;9.43;100.00
43707;BME280;61348;53.392;-6.248;2023-12-22T03:03:15;100581.31;;;9.45;100.00
43707;BME280;61348;53.392;-6.248;2023-12-22T03:05:42;100590.25;;;9.42;100.00
43707;BME280;61348;53.392;-6.248;2023-12-22T03:08:09;100600.03;;;9.39;100.00
43707;BME280;61348;53.392;-6.248;2023-12-22T03:10:37;100595.66;;;9.38;100.00
43707;BME280;61348;53.392;-6.248;2023-12-22T03:13:04;100595.19;;;9.36;100.00
43707;BME280;61348;53.392;-6.248;2023-12-22T03:15:31;100606.56;;;9.35;100.00
43707;BME280;61348;53.392;-6.248;2023-12-22T03:17:58;100603.34;;;9.33;100.00
43707;BME280;61348;53.392;-6.248;2023-12-22T03:20:26;100600.94;;;9.31;100.00
43707;BME280;61348;53.392;-6.248;2023-12-22T03:22:53;100604.03;;;9.30;100.00
43707;BME280;61348;53.392;-6.248;2023-12-22T03:25:20;100605.19;;;9.29;100.00
43707;BME280;61348;53.392;-6.248;2023-12-22T03:27:48;100593.66;;;9.27;100.00
43707;BME280;61348;53.392;-6.248;2023-12-22T03:30:16;100598.72;;;9.25;100.00
43707;BME280;61348;53.392;-6.248;2023-12-22T03:32:44;100602.97;;;9.22;100.00
43707;BME280;61348;53.392;-6.248;2023-12-22T03:35:11;100595.03;;;9.21;100.00
43707;BME280;61348;53.392;-6.248;2023-12-22T03:37:38;100583.16;;;9.20;100.00
43707;BME280;61348;53.392;-6.248;2023-12-22T03:40:06;100574.06;;;9.19;100.00
43707;BME280;61348;53.392;-6.248;2023-12-22T03:42:34;100569.72;;;9.18;100.00
43707;BME280;61348;53.392;-6.248;2023-12-22T03:45:01;100580.28;;;9.16;100.00
43707;BME280;61348;53.392;-6.248;2023-12-22T03:47:29;100577.50;;;9.16;100.00
43707;BME280;61348;53.392;-6.248;2023-12-22T03:49:56;100583.84;;;9.17;100.00
43707;BME280;61348;53.392;-6.248;2023-12-22T03:52:24;100585.78;;;9.16;100.00
43707;BME280;61348;53.392;-6.248;2023-12-22T03:54:51;100583.72;;;9.13;100.00
43707;BME280;61348;53.392;-6.248;2023-12-22T03:57:18;100583.72;;;9.13;100.00
43707;BME280;61348;53.392;-6.248;2023-12-22T03:59:45;100589.22;;;9.13;100.00
43707;BME280;61348;53.392;-6.248;2023-12-22T04:02:13;100574.63;;;9.13;100.00
43707;BME280;61348;53.392;-6.248;2023-12-22T04:04:40;100577.41;;;9.13;100.00
43707;BME280;61348;53.392;-6.248;2023-12-22T04:07:07;100593.16;;;9.12;100.00
43707;BME280;61348;53.392;-6.248;2023-12-22T04:09:37;100574.97;;;9.11;100.00
43707;BME280;61348;53.392;-6.248;2023-12-22T04:12:05;100586.81;;;9.12;100.00
43707;BME280;61348;53.392;-6.248;2023-12-22T04:14:33;100586.00;;;9.11;100.00
43707;BME280;61348;53.392;-6.248;2023-12-22T04:17:00;100581.66;;;9.10;100.00
43707;BME280;61348;53.392;-6.248;2023-12-22T04:19:27;100600.97;;;9.10;100.00
43707;BME280;61348;53.392;-6.248;2023-12-22T04:21:55;100578.88;;;9.10;100.00
43707;BME280;61348;53.392;-6.248;2023-12-22T04:24:22;100595.91;;;9.12;100.00
43707;BME280;61348;53.392;-6.248;2023-12-22T04:26:49;100592.47;;;9.15;100.00
43707;BME280;61348;53.392;-6.248;2023-12-22T04:29:17;100587.41;;;9.17;100.00
43707;BME280;61348;53.392;-6.248;2023-12-22T04:31:44;100582.34;;;9.19;100.00
43707;BME280;61348;53.392;-6.248;2023-12-22T04:34:13;100578.47;;;9.21;100.00
43707;BME280;61348;53.392;-6.248;2023-12-22T04:36:41;100596.31;;;9.23;100.00
43707;BME280;61348;53.392;-6.248;2023-12-22T04:39:09;100572.72;;;9.26;100.00
43707;BME280;61348;53.392;-6.248;2023-12-22T04:41:36;100564.06;;;9.27;100.00
43707;BME280;61348;53.392;-6.248;2023-12-22T04:44:03;100568.78;;;9.27;100.00
43707;BME280;61348;53.392;-6.248;2023-12-22T04:46:31;100573.53;;;9.26;100.00
43707;BME280;61348;53.392;-6.248;2023-12-22T04:48:58;100568.78;;;9.27;100.00
43707;BME280;61348;53.392;-6.248;2023-12-22T04:51:26;100574.66;;;9.25;100.00
43707;BME280;61348;53.392;-6.248;2023-12-22T04:53:54;100572.25;;;9.24;100.00
43707;BME280;61348;53.392;-6.248;2023-12-22T04:56:23;100571.44;;;9.23;100.00
43707;BME280;61348;53.392;-6.248;2023-12-22T04:58:50;100577.78;;;9.24;100.00
43707;BME280;61348;53.392;-6.248;2023-12-22T05:01:18;100565.56;;;9.25;100.00
43707;BME280;61348;53.392;-6.248;2023-12-22T05:03:46;100566.03;;;9.27;100.00
43707;BME280;61348;53.392;-6.248;2023-12-22T05:06:14;100564.88;;;9.28;100.00
43707;BME280;61348;53.392;-6.248;2023-12-22T05:08:41;100557.41;;;9.28;100.00
43707;BME280;61348;53.392;-6.248;2023-12-22T05:11:08;100564.22;;;9.31;100.00
43707;BME280;61348;53.392;-6.248;2023-12-22T05:13:36;100557.06;;;9.30;100.00
43707;BME280;61348;53.392;-6.248;2023-12-22T05:16:04;100570.19;;;9.33;100.00
43707;BME280;61348;53.392;-6.248;2023-12-22T05:18:34;100572.97;;;9.33;100.00
43707;BME280;61348;53.392;-6.248;2023-12-22T05:21:01;100582.88;;;9.34;100.00
43707;BME280;61348;53.392;-6.248;2023-12-22T05:23:28;100590.00;;;9.35;100.00
43707;BME280;61348;53.392;-6.248;2023-12-22T05:25:56;100598.78;;;9.37;100.00
43707;BME280;61348;53.392;-6.248;2023-12-22T05:28:23;100600.38;;;9.38;100.00
43707;BME280;61348;53.392;-6.248;2023-12-22T05:30:51;100609.16;;;9.40;100.00
43707;BME280;61348;53.392;-6.248;2023-12-22T05:33:18;100595.34;;;9.40;100.00
43707;BME280;61348;53.392;-6.248;2023-12-22T05:35:45;100609.16;;;9.40;100.00
43707;BME280;61348;53.392;-6.248;2023-12-22T05:38:13;100610.28;;;9.39;100.00
43707;BME280;61348;53.392;-6.248;2023-12-22T05:40:40;100620.19;;;9.40;100.00
43707;BME280;61348;53.392;-6.248;2023-12-22T05:43:07;100615.47;;;9.40;100.00
43707;BME280;61348;53.392;-6.248;2023-12-22T05:45:35;100608.44;;;9.43;100.00
43707;BME280;61348;53.392;-6.248;2023-12-22T05:48:02;100606.84;;;9.42;100.00
43707;BME280;61348;53.392;-6.248;2023-12-22T05:50:30;100617.91;;;9.42;100.00
43707;BME280;61348;53.392;-6.248;2023-12-22T05:52:57;100617.09;;;9.41;100.00
43707;BME280;61348;53.392;-6.248;2023-12-22T05:55:24;100641.00;;;9.37;100.00
43707;BME280;61348;53.392;-6.248;2023-12-22T05:57:52;100630.16;;;9.32;100.00
43707;BME280;61348;53.392;-6.248;2023-12-22T06:00:21;100622.91;;;9.28;100.00
43707;BME280;61348;53.392;-6.248;2023-12-22T06:02:48;100615.63;;;9.23;100.00
43707;BME280;61348;53.392;-6.248;2023-12-22T06:05:16;100625.06;;;9.22;100.00
43707;BME280;61348;53.392;-6.248;2023-12-22T06:07:43;100630.81;;;9.17;100.00
43707;BME280;61348;53.392;-6.248;2023-12-22T06:10:11;100619.28;;;9.15;100.00
43707;BME280;61348;53.392;-6.248;2023-12-22T06:12:38;100627.91;;;9.13;100.00
43707;BME280;61348;53.392;-6.248;2023-12-22T06:15:06;100623.06;;;9.10;100.00
43707;BME280;61348;53.392;-6.248;2023-12-22T06:17:33;100624.56;;;9.08;100.00
43707;BME280;61348;53.392;-6.248;2023-12-22T06:20:00;100619.81;;;9.08;100.00
43707;BME280;61348;53.392;-6.248;2023-12-22T06:22:28;100625.34;;;9.08;100.00
43707;BME280;61348;53.392;-6.248;2023-12-22T06:24:55;100630.88;;;9.08;100.00
43707;BME280;61348;53.392;-6.248;2023-12-22T06:27:23;100613.16;;;9.09;100.00
43707;BME280;61348;53.392;-6.248;2023-12-22T06:29:50;100627.78;;;9.10;100.00
43707;BME280;61348;53.392;-6.248;2023-12-22T06:32:17;100629.38;;;9.11;100.00
43707;BME280;61348;53.392;-6.248;2023-12-22T06:34:45;100634.91;;;9.11;100.00
43707;BME280;61348;53.392;-6.248;2023-12-22T06:37:12;100630.19;;;9.11;100.00
43707;BME280;61348;53.392;-6.248;2023-12-22T06:39:39;100642.72;;;9.09;100.00
43707;BME280;61348;53.392;-6.248;2023-12-22T06:42:07;100626.16;;;9.09;100.00
43707;BME280;61348;53.392;-6.248;2023-12-22T06:44:38;100634.78;;;9.07;100.00
43707;BME280;61348;53.392;-6.248;2023-12-22T06:47:05;100643.75;;;9.04;100.00
43707;BME280;61348;53.392;-6.248;2023-12-22T06:49:32;100624.41;;;9.04;100.00
43707;BME280;61348;53.392;-6.248;2023-12-22T06:52:00;100642.13;;;9.03;100.00
43707;BME280;61348;53.392;-6.248;2023-12-22T06:54:28;100656.38;;;9.05;100.00
43707;BME280;61348;53.392;-6.248;2023-12-22T06:56:57;100663.53;;;9.06;100.00
43707;BME280;61348;53.392;-6.248;2023-12-22T06:59:24;100648.59;;;9.07;100.00
43707;BME280;61348;53.392;-6.248;2023-12-22T07:01:53;100667.13;;;9.07;100.00
43707;BME280;61348;53.392;-6.248;2023-12-22T07:05:00;100649.41;;;9.08;100.00
43707;BME280;61348;53.392;-6.248;2023-12-22T07:07:34;100656.88;;;9.07;100.00
43707;BME280;61348;53.392;-6.248;2023-12-22T07:10:03;100645.84;;;9.07;100.00
43707;BME280;61348;53.392;-6.248;2023-12-22T07:12:31;100639.16;;;9.08;100.00
43707;BME280;61348;53.392;-6.248;2023-12-22T07:14:59;100655.72;;;9.08;100.00
43707;BME280;61348;53.392;-6.248;2023-12-22T07:17:26;100653.78;;;9.09;100.00
43707;BME280;61348;53.392;-6.248;2023-12-22T07:19:54;100676.69;;;9.09;100.00
43707;BME280;61348;53.392;-6.248;2023-12-22T07:22:25;100669.53;;;9.08;100.00
43707;BME280;61348;53.392;-6.248;2023-12-22T07:24:53;100666.31;;;9.06;100.00
43707;BME280;61348;53.392;-6.248;2023-12-22T07:27:20;100665.50;;;9.06;100.00
43707;BME280;61348;53.392;-6.248;2023-12-22T07:29:47;100661.91;;;9.05;100.00
43707;BME280;61348;53.392;-6.248;2023-12-22T07:32:15;100661.44;;;9.03;100.00
43707;BME280;61348;53.392;-6.248;2023-12-22T07:34:42;100666.97;;;9.03;100.00
43707;BME280;61348;53.392;-6.248;2023-12-22T07:37:12;100665.38;;;9.02;100.00
43707;BME280;61348;53.392;-6.248;2023-12-22T07:39:39;100668.59;;;9.04;100.00
43707;BME280;61348;53.392;-6.248;2023-12-22T07:42:06;100663.06;;;9.04;100.00
43707;BME280;61348;53.392;-6.248;2023-12-22T07:44:34;100661.91;;;9.05;100.00
43707;BME280;61348;53.392;-6.248;2023-12-22T07:47:01;100671.81;;;9.06;100.00
43707;BME280;61348;53.392;-6.248;2023-12-22T07:49:30;100669.06;;;9.06;100.00
43707;BME280;61348;53.392;-6.248;2023-12-22T07:51:59;100682.88;;;9.06;100.00
43707;BME280;61348;53.392;-6.248;2023-12-22T07:54:29;100679.66;;;9.04;100.00
43707;BME280;61348;53.392;-6.248;2023-12-22T07:56:56;100685.16;;;9.04;100.00
43707;BME280;61348;53.392;-6.248;2023-12-22T07:59:23;100679.66;;;9.04;100.00
43707;BME280;61348;53.392;-6.248;2023-12-22T08:01:58;100683.53;;;9.03;100.00
43707;BME280;61348;53.392;-6.248;2023-12-22T08:04:26;100696.88;;;9.01;100.00
43707;BME280;61348;53.392;-6.248;2023-12-22T08:06:54;100712.63;;;9.01;100.00
43707;BME280;61348;53.392;-6.248;2023-12-22T08:09:22;100697.56;;;8.98;100.00
43707;BME280;61348;53.392;-6.248;2023-12-22T08:11:52;100700.97;;;8.95;100.00
43707;BME280;61348;53.392;-6.248;2023-12-22T08:14:20;100705.56;;;8.91;100.00
43707;BME280;61348;53.392;-6.248;2023-12-22T08:16:47;100724.09;;;8.91;100.00
43707;BME280;61348;53.392;-6.248;2023-12-22T08:19:15;100719.69;;;8.90;100.00
43707;BME280;61348;53.392;-6.248;2023-12-22T08:21:42;100716.16;;;8.89;100.00
43707;BME280;61348;53.392;-6.248;2023-12-22T08:24:13;100713.69;;;8.88;100.00
43707;BME280;61348;53.392;-6.248;2023-12-22T08:26:49;100723.94;;;8.87;100.00
43707;BME280;61348;53.392;-6.248;2023-12-22T08:29:17;100731.06;;;8.88;100.00
43707;BME280;61348;53.392;-6.248;2023-12-22T08:31:46;100732.22;;;8.87;100.00
43707;BME280;61348;53.392;-6.248;2023-12-22T08:34:14;100728.66;;;8.87;100.00
43707;BME280;61348;53.392;-6.248;2023-12-22T08:36:41;100736.78;;;8.83;100.00
43707;BME280;61348;53.392;-6.248;2023-12-22T08:39:09;100724.47;;;8.81;100.00
43707;BME280;61348;53.392;-6.248;2023-12-22T08:41:37;100735.81;;;8.79;100.00
43707;BME280;61348;53.392;-6.248;2023-12-22T08:44:06;100732.59;;;8.77;100.00
43707;BME280;61348;53.392;-6.248;2023-12-22T08:46:34;100742.34;;;8.75;100.00
43707;BME280;61348;53.392;-6.248;2023-12-22T08:49:02;100747.72;;;8.71;100.00
43707;BME280;61348;53.392;-6.248;2023-12-22T08:51:30;100742.91;;;8.68;100.00
43707;BME280;61348;53.392;-6.248;2023-12-22T08:53:58;100768.03;;;8.67;100.00
43707;BME280;61348;53.392;-6.248;2023-12-22T08:56:26;100754.09;;;8.63;100.00
43707;BME280;61348;53.392;-6.248;2023-12-22T08:58:54;100758.00;;;8.62;100.00
43707;BME280;61348;53.392;-6.248;2023-12-22T09:01:25;100757.53;;;8.60;100.00
43707;BME280;61348;53.392;-6.248;2023-12-22T09:03:52;100760.63;;;8.58;100.00
43707;BME280;61348;53.392;-6.248;2023-12-22T09:06:21;100758.19;;;8.57;100.00
43707;BME280;61348;53.392;-6.248;2023-12-22T09:08:49;100764.84;;;8.56;100.00
43707;BME280;61348;53.392;-6.248;2023-12-22T09:11:19;100756.56;;;8.56;100.00
43707;BME280;61348;53.392;-6.248;2023-12-22T09:13:47;100764.38;;;8.54;100.00
43707;BME280;61348;53.392;-6.248;2023-12-22T09:16:21;100767.13;;;8.54;100.00
43707;BME280;61348;53.392;-6.248;2023-12-22T09:18:48;100775.41;;;8.54;100.00
43707;BME280;61348;53.392;-6.248;2023-12-22T09:21:17;100766.00;;;8.55;100.00
43707;BME280;61348;53.392;-6.248;2023-12-22T09:23:46;100771.53;;;8.55;100.00
43707;BME280;61348;53.392;-6.248;2023-12-22T09:26:14;100788.88;;;8.55;100.00
43707;BME280;61348;53.392;-6.248;2023-12-22T09:28:42;100770.72;;;8.54;100.00
43707;BME280;61348;53.392;-6.248;2023-12-22T09:31:10;100764.84;;;8.56;100.00
43707;BME280;61348;53.392;-6.248;2023-12-22T09:33:38;100766.00;;;8.55;100.00
43707;BME280;61348;53.392;-6.248;2023-12-22T09:36:07;100760.97;;;8.57;100.00
43707;BME280;61348;53.392;-6.248;2023-12-22T09:38:34;100781.22;;;8.61;100.00
43707;BME280;61348;53.392;-6.248;2023-12-22T09:41:03;100766.28;;;8.62;100.00
43707;BME280;61348;53.392;-6.248;2023-12-22T09:43:35;100757.53;;;8.60;100.00
43707;BME280;61348;53.392;-6.248;2023-12-22T09:46:04;100750.88;;;8.61;100.00
43707;BME280;61348;53.392;-6.248;2023-12-22T09:48:33;100763.06;;;8.60;100.00
43707;BME280;61348;53.392;-6.248;2023-12-22T09:51:02;100759.81;;;8.58;100.00
43707;BME280;61348;53.392;-6.248;2023-12-22T09:53:30;100763.06;;;8.60;100.00
43707;BME280;61348;53.392;-6.248;2023-12-22T09:55:59;100763.84;;;8.61;100.00
43707;BME280;61348;53.392;-6.248;2023-12-22T09:58:27;100775.03;;;8.64;100.00
43707;BME280;61348;53.392;-6.248;2023-12-22T10:00:54;100758.94;;;8.66;100.00
43707;BME280;61348;53.392;-6.248;2023-12-22T10:03:24;100782.81;;;8.71;100.00
43707;BME280;61348;53.392;-6.248;2023-12-22T10:05:53;100782.94;;;8.74;100.00
43707;BME280;61348;53.392;-6.248;2023-12-22T10:08:20;100779.53;;;8.77;100.00
43707;BME280;61348;53.392;-6.248;2023-12-22T10:10:48;100783.56;;;8.80;100.00
43707;BME280;61348;53.392;-6.248;2023-12-22T10:13:20;100785.19;;;8.81;100.00
43707;BME280;61348;53.392;-6.248;2023-12-22T10:15:48;100788.44;;;8.83;100.00
43707;BME280;61348;53.392;-6.248;2023-12-22T10:18:16;100778.69;;;8.85;100.00
43707;BME280;61348;53.392;-6.248;2023-12-22T10:20:44;100789.06;;;8.88;100.00
43707;BME280;61348;53.392;-6.248;2023-12-22T10:23:13;100789.53;;;8.90;100.00
43707;BME280;61348;53.392;-6.248;2023-12-22T10:25:40;100771.47;;;8.93;100.00
43707;BME280;61348;53.392;-6.248;2023-12-22T10:28:11;100786.56;;;8.95;100.00
43707;BME280;61348;53.392;-6.248;2023-12-22T10:30:40;100787.53;;;8.99;100.00
43707;BME280;61348;53.392;-6.248;2023-12-22T10:33:07;100798.25;;;9.01;100.00
43707;BME280;61348;53.392;-6.248;2023-12-22T10:35:35;100806.69;;;9.04;100.00
43707;BME280;61348;53.392;-6.248;2023-12-22T10:38:03;100802.09;;;9.08;100.00
43707;BME280;61348;53.392;-6.248;2023-12-22T10:40:31;100790.38;;;9.11;100.00
43707;BME280;61348;53.392;-6.248;2023-12-22T10:42:59;100802.41;;;9.15;100.00
43707;BME280;61348;53.392;-6.248;2023-12-22T10:45:28;100798.16;;;9.18;100.00
43707;BME280;61348;53.392;-6.248;2023-12-22T10:47:58;100789.06;;;9.17;100.00
43707;BME280;61348;53.392;-6.248;2023-12-22T10:50:27;100806.09;;;9.19;100.00
43707;BME280;61348;53.392;-6.248;2023-12-22T10:52:56;100793.25;;;9.24;100.00
43707;BME280;61348;53.392;-6.248;2023-12-22T10:55:24;100793.72;;;9.26;100.00
43707;BME280;61348;53.392;-6.248;2023-12-22T10:57:51;100797.75;;;9.28;100.00
43707;BME280;61348;53.392;-6.248;2023-12-22T11:00:20;100801.34;;;9.29;100.00
43707;BME280;61348;53.392;-6.248;2023-12-22T11:02:49;100813.53;;;9.28;100.00
43707;BME280;61348;53.392;-6.248;2023-12-22T11:05:20;100807.78;;;9.33;100.00
43707;BME280;61348;53.392;-6.248;2023-12-22T11:07:49;100801.13;;;9.34;100.00
43707;BME280;61348;53.392;-6.248;2023-12-22T11:10:20;100830.88;;;9.37;100.00
43707;BME280;61348;53.392;-6.248;2023-12-22T11:12:48;100832.47;;;9.38;100.00
43707;BME280;61348;53.392;-6.248;2023-12-22T11:15:18;100832.25;;;9.43;100.00
43707;BME280;61348;53.392;-6.248;2023-12-22T11:17:46;100830.00;;;9.45;100.00
43707;BME280;61348;53.392;-6.248;2023-12-22T11:20:15;100830.00;;;9.45;100.00
43707;BME280;61348;53.392;-6.248;2023-12-22T11:22:44;100820.91;;;9.44;100.00
43707;BME280;61348;53.392;-6.248;2023-12-22T11:25:13;100826.41;;;9.44;100.00
43707;BME280;61348;53.392;-6.248;2023-12-22T11:27:44;100817.13;;;9.49;100.00
43707;BME280;61348;53.392;-6.248;2023-12-22T11:30:14;100836.91;;;9.51;100.00
43707;BME280;61348;53.392;-6.248;2023-12-22T11:32:44;100817.38;;;9.56;100.00
43707;BME280;61348;53.392;-6.248;2023-12-22T11:35:11;100826.16;;;9.58;100.00
43707;BME280;61348;53.392;-6.248;2023-12-22T11:37:39;100824.69;;;9.60;100.00
43707;BME280;61348;53.392;-6.248;2023-12-22T11:40:07;100828.25;;;9.61;100.00
43707;BME280;61348;53.392;-6.248;2023-12-22T11:42:42;100823.19;;;9.63;100.00
43707;BME280;61348;53.392;-6.248;2023-12-22T11:45:14;100820.09;;;9.64;100.00
43707;BME280;61348;53.392;-6.248;2023-12-22T11:47:43;100833.59;;;9.66;100.00
43707;BME280;61348;53.392;-6.248;2023-12-22T11:50:12;100827.69;;;9.67;100.00
43707;BME280;61348;53.392;-6.248;2023-12-22T11:52:39;100828.53;;;9.68;100.00
43707;BME280;61348;53.392;-6.248;2023-12-22T11:55:07;100825.91;;;9.71;100.00
43707;BME280;61348;53.392;-6.248;2023-12-22T11:57:36;100817.25;;;9.73;100.00
43707;BME280;61348;53.392;-6.248;2023-12-22T12:00:07;100808.50;;;9.71;100.00
43707;BME280;61348;53.392;-6.248;2023-12-22T12:02:36;100806.56;;;9.71;100.00
43707;BME280;61348;53.392;-6.248;2023-12-22T12:05:07;100801.34;;;9.70;100.00
43707;BME280;61348;53.392;-6.248;2023-12-22T12:07:45;100801.13;;;9.75;100.00
43707;BME280;61348;53.392;-6.248;2023-12-22T12:13:08;100776.84;;;9.80;99.94
43707;BME280;61348;53.392;-6.248;2023-12-22T12:15:36;100771.78;;;9.82;100.00
43707;BME280;61348;53.392;-6.248;2023-12-22T12:18:05;100783.34;;;9.85;99.95
43707;BME280;61348;53.392;-6.248;2023-12-22T12:20:35;100779.53;;;9.89;99.94
43707;BME280;61348;53.392;-6.248;2023-12-22T12:23:02;100794.28;;;9.93;99.80
43707;BME280;61348;53.392;-6.248;2023-12-22T12:25:32;100795.34;;;10.01;99.96
43707;BME280;61348;53.392;-6.248;2023-12-22T12:28:07;100778.91;;;10.04;99.62
43707;BME280;61348;53.392;-6.248;2023-12-22T12:30:37;100785.59;;;10.03;99.37
43707;BME280;61348;53.392;-6.248;2023-12-22T12:33:09;100774.72;;;9.98;98.90
43707;BME280;61348;53.392;-6.248;2023-12-22T12:35:37;100771.72;;;9.91;98.40
43707;BME280;61348;53.392;-6.248;2023-12-22T12:38:11;100780.00;;;9.91;98.88
43707;BME280;61348;53.392;-6.248;2023-12-22T12:40:40;100776.91;;;9.93;98.68
43707;BME280;61348;53.392;-6.248;2023-12-22T12:43:08;100776.22;;;9.96;98.45
43707;BME280;61348;53.392;-6.248;2023-12-22T12:45:36;100786.13;;;9.97;98.34
43707;BME280;61348;53.392;-6.248;2023-12-22T12:48:03;100773.59;;;9.99;98.23
43707;BME280;61348;53.392;-6.248;2023-12-22T12:50:34;100786.59;;;9.99;98.02